Time;durP1;ratioP1;P1;durP2;ratioP2;P2;SDS_P1;SDS_P2;PMS_P1;PMS_P2;Temp;Humidity;BMP_temperature;BMP_pressure;BME280_temperature;BME280_humidity;BME280_pressure;Samples;Min_cycle;Max_cycle;Signal;HPM_P1;HPM_P2
2021/09/12 00:00:22;;;;;;;2.60;1.50;;;14.80;68.60;;;;;;5053049;28;20187;-75
2021/09/12 00:02:48;;;;;;;1.92;1.77;;;14.70;69.50;;;;;;5042497;28;20183;-75
2021/09/12 00:05:14;;;;;;;1.17;1.17;;;14.60;69.50;;;;;;5057880;28;20636;-75
2021/09/12 00:07:39;;;;;;;2.10;1.73;;;14.50;69.30;;;;;;5047786;28;20187;-75
2021/09/12 00:10:07;;;;;;;1.67;1.58;;;14.50;69.50;;;;;;5047775;28;20179;-76
2021/09/12 00:12:32;;;;;;;1.63;1.52;;;14.50;69.80;;;;;;5049375;28;20245;-75
2021/09/12 00:14:58;;;;;;;2.97;1.80;;;14.50;69.80;;;;;;5054787;28;20179;-76
2021/09/12 00:17:24;;;;;;;3.97;1.85;;;14.40;69.90;;;;;;5053853;28;20644;-75
2021/09/12 00:19:50;;;;;;;1.98;1.88;;;14.30;70.50;;;;;;5049865;28;20182;-76
2021/09/12 00:22:15;;;;;;;1.80;1.70;;;14.30;70.80;;;;;;5052549;28;20187;-75
2021/09/12 00:24:41;;;;;;;2.05;1.63;;;14.20;70.80;;;;;;5043018;28;20217;-76
2021/09/12 00:27:07;;;;;;;1.85;1.70;;;14.20;70.80;;;;;;5051555;28;20237;-75
2021/09/12 00:29:33;;;;;;;1.55;1.42;;;14.20;71.00;;;;;;5048147;28;20288;-76
2021/09/12 00:31:59;;;;;;;1.90;1.77;;;14.20;71.40;;;;;;5044621;28;20211;-74
2021/09/12 00:34:24;;;;;;;2.95;1.50;;;14.20;70.90;;;;;;5044622;28;20602;-75
2021/09/12 00:36:50;;;;;;;2.30;2.03;;;14.20;70.80;;;;;;5059586;28;20184;-75
2021/09/12 00:39:16;;;;;;;1.42;1.42;;;14.10;71.40;;;;;;5044762;28;20176;-75
2021/09/12 00:41:44;;;;;;;1.92;1.85;;;14.00;72.00;;;;;;5051130;28;20269;-75
2021/09/12 00:44:12;;;;;;;1.42;1.42;;;14.00;71.00;;;;;;5043814;28;20230;-77
2021/09/12 00:46:42;;;;;;;1.73;1.63;;;14.00;71.10;;;;;;5053696;28;20180;-77
2021/09/12 00:49:08;;;;;;;1.58;1.50;;;14.00;71.20;;;;;;5049393;28;20237;-76
2021/09/12 00:51:34;;;;;;;1.77;1.48;;;13.90;71.50;;;;;;5056523;28;20211;-74
2021/09/12 00:54:02;;;;;;;1.60;1.55;;;13.90;71.40;;;;;;5046959;28;20183;-77
2021/09/12 00:56:29;;;;;;;1.73;1.73;;;13.90;72.20;;;;;;5049942;28;20206;-76
2021/09/12 00:58:56;;;;;;;1.88;1.35;;;13.80;72.30;;;;;;5047816;28;20690;-77
2021/09/12 01:01:25;;;;;;;1.98;1.90;;;13.80;72.50;;;;;;5043553;28;20274;-77
2021/09/12 01:03:52;;;;;;;1.98;1.88;;;13.80;71.90;;;;;;5046787;28;20180;-77
2021/09/12 01:06:19;;;;;;;1.67;1.67;;;13.70;72.10;;;;;;5044862;28;20187;-75
2021/09/12 01:08:44;;;;;;;1.65;1.55;;;13.70;72.60;;;;;;5051398;28;20218;-75
2021/09/12 01:11:11;;;;;;;1.70;1.60;;;13.70;73.60;;;;;;5056444;28;20206;-76
2021/09/12 01:13:41;;;;;;;1.33;1.33;;;13.60;73.70;;;;;;5044966;28;20194;-77
2021/09/12 01:16:15;;;;;;;1.40;1.33;;;13.60;73.10;;;;;;5050667;28;20195;-76
2021/09/12 01:18:43;;;;;;;1.30;1.30;;;13.60;74.00;;;;;;5049638;28;20193;-76
2021/09/12 01:21:11;;;;;;;5.18;1.80;;;13.60;73.70;;;;;;5055077;28;20203;-76
2021/09/12 01:23:37;;;;;;;1.40;1.40;;;13.50;74.20;;;;;;5045604;28;20963;-77
2021/09/12 01:26:03;;;;;;;2.80;1.30;;;13.50;73.80;;;;;;5046261;28;20184;-76
2021/09/12 01:28:29;;;;;;;1.63;1.48;;;13.50;74.20;;;;;;5045713;28;20642;-76
2021/09/12 01:30:55;;;;;;;1.45;1.45;;;13.40;73.70;;;;;;5050553;28;20534;-76
2021/09/12 01:33:21;;;;;;;2.17;1.50;;;13.40;73.80;;;;;;5047187;28;20186;-76
2021/09/12 01:35:47;;;;;;;1.13;1.13;;;13.40;74.00;;;;;;5051836;28;20573;-76
2021/09/12 01:38:13;;;;;;;1.20;1.10;;;13.40;73.90;;;;;;5046329;28;21046;-76
2021/09/12 01:40:39;;;;;;;1.98;1.77;;;13.40;73.90;;;;;;5059073;28;20573;-76
2021/09/12 01:43:04;;;;;;;1.35;1.25;;;13.40;74.00;;;;;;5045778;28;20190;-76
2021/09/12 01:45:30;;;;;;;1.20;1.20;;;13.30;74.00;;;;;;5053012;28;20202;-76
2021/09/12 01:48:00;;;;;;;2.22;1.52;;;13.30;74.50;;;;;;5049511;28;20641;-77
2021/09/12 01:50:27;;;;;;;1.45;1.38;;;13.30;74.10;;;;;;5051837;28;20210;-76
2021/09/12 01:52:54;;;;;;;1.80;1.80;;;13.30;74.50;;;;;;5045709;28;20652;-76
2021/09/12 01:55:20;;;;;;;1.60;1.50;;;13.20;74.30;;;;;;5050568;28;20183;-76
2021/09/12 01:57:45;;;;;;;1.65;1.55;;;13.20;74.80;;;;;;5051402;28;21633;-76
2021/09/12 02:00:12;;;;;;;1.27;1.27;;;13.20;75.00;;;;;;5052678;28;20176;-76
2021/09/12 02:02:37;;;;;;;1.55;1.45;;;13.20;74.90;;;;;;5054089;28;20192;-76
2021/09/12 02:05:04;;;;;;;1.15;1.05;;;13.20;74.90;;;;;;5053714;28;20187;-76
2021/09/12 02:07:30;;;;;;;1.55;1.45;;;13.20;75.10;;;;;;5057204;28;20259;-76
2021/09/12 02:09:56;;;;;;;1.42;1.05;;;13.20;74.60;;;;;;5046570;28;20275;-76
2021/09/12 02:12:21;;;;;;;2.58;1.90;;;13.10;74.70;;;;;;5050707;28;20211;-75
2021/09/12 02:14:47;;;;;;;3.45;1.52;;;13.10;74.70;;;;;;5045818;28;20205;-76
2021/09/12 02:17:13;;;;;;;1.63;1.52;;;13.10;74.60;;;;;;5053747;28;20182;-76
2021/09/12 02:19:38;;;;;;;1.35;1.17;;;13.10;75.00;;;;;;5041525;28;20184;-76
2021/09/12 02:22:06;;;;;;;2.33;1.40;;;13.10;75.80;;;;;;5045642;28;20187;-76
2021/09/12 02:24:33;;;;;;;1.50;1.40;;;13.00;75.70;;;;;;5042948;28;20184;-76
2021/09/12 02:26:58;;;;;;;1.65;1.50;;;13.00;75.50;;;;;;5056761;28;20179;-76
2021/09/12 02:29:24;;;;;;;1.48;1.42;;;13.00;75.70;;;;;;5050018;28;20208;-76
2021/09/12 02:31:50;;;;;;;1.25;1.25;;;12.90;76.00;;;;;;5053619;28;20206;-76
2021/09/12 02:34:16;;;;;;;3.50;2.25;;;12.90;75.90;;;;;;5049779;28;20256;-76
2021/09/12 02:36:42;;;;;;;1.77;1.67;;;12.90;76.10;;;;;;5054735;28;20657;-76
2021/09/12 02:39:08;;;;;;;1.30;1.30;;;12.80;76.00;;;;;;5057100;28;20184;-76
2021/09/12 02:41:33;;;;;;;1.30;1.30;;;12.80;75.80;;;;;;5056046;28;20229;-76
2021/09/12 02:43:59;;;;;;;1.55;1.50;;;12.80;75.50;;;;;;5051749;28;20184;-76
2021/09/12 02:46:25;;;;;;;1.48;1.10;;;12.80;75.70;;;;;;5056264;28;20182;-76
2021/09/12 02:48:51;;;;;;;1.25;1.20;;;12.80;75.80;;;;;;5054593;28;20182;-76
2021/09/12 02:51:16;;;;;;;1.30;1.30;;;12.80;76.00;;;;;;5056020;28;20213;-76
2021/09/12 02:53:42;;;;;;;2.38;1.35;;;12.70;76.30;;;;;;5049546;28;20187;-76
2021/09/12 02:56:08;;;;;;;1.70;1.60;;;12.70;76.30;;;;;;5050723;28;20192;-76
2021/09/12 02:58:33;;;;;;;1.20;1.10;;;12.80;76.30;;;;;;5053830;28;21098;-76
2021/09/12 03:00:59;;;;;;;1.52;1.42;;;12.80;76.00;;;;;;5056556;28;20229;-76
2021/09/12 03:03:25;;;;;;;1.00;1.00;;;12.80;76.30;;;;;;5051143;28;20187;-76
2021/09/12 03:05:51;;;;;;;1.58;1.48;;;12.80;76.30;;;;;;5049888;28;20262;-76
2021/09/12 03:08:17;;;;;;;1.75;1.65;;;12.80;76.30;;;;;;5055260;28;20183;-76
2021/09/12 03:10:43;;;;;;;1.73;1.73;;;12.80;76.90;;;;;;5055224;28;20224;-76
2021/09/12 03:13:09;;;;;;;2.17;1.73;;;12.80;77.00;;;;;;5047690;28;20591;-76
2021/09/12 03:15:35;;;;;;;3.13;1.95;;;12.70;77.30;;;;;;5050491;28;20642;-76
2021/09/12 03:18:01;;;;;;;2.17;2.03;;;12.80;77.10;;;;;;5048999;28;20657;-76
2021/09/12 03:20:27;;;;;;;2.03;1.92;;;12.70;77.40;;;;;;5051193;28;20266;-76
2021/09/12 03:22:52;;;;;;;3.08;1.70;;;12.70;77.40;;;;;;5050138;28;20187;-76
2021/09/12 03:25:18;;;;;;;1.90;1.63;;;12.70;77.20;;;;;;5051959;28;20187;-75
2021/09/12 03:27:44;;;;;;;3.55;1.60;;;12.70;77.50;;;;;;5046800;28;20179;-75
2021/09/12 03:30:10;;;;;;;1.85;1.63;;;12.70;77.50;;;;;;5053928;28;20230;-75
2021/09/12 03:32:36;;;;;;;1.60;1.50;;;12.70;77.40;;;;;;5046542;28;20759;-76
2021/09/12 03:35:02;;;;;;;1.60;1.50;;;12.70;78.30;;;;;;5051407;28;20182;-76
2021/09/12 03:37:28;;;;;;;2.47;2.33;;;12.70;78.00;;;;;;5048806;28;20233;-75
2021/09/12 03:39:54;;;;;;;3.92;1.73;;;12.60;78.40;;;;;;5048840;28;20187;-75
2021/09/12 03:42:20;;;;;;;2.33;2.00;;;12.60;78.00;;;;;;5053312;28;20184;-75
2021/09/12 03:44:45;;;;;;;1.40;1.35;;;12.60;78.10;;;;;;5050430;28;20187;-75
2021/09/12 03:47:11;;;;;;;5.57;1.48;;;12.50;77.90;;;;;;5048040;28;20184;-75
2021/09/12 03:49:37;;;;;;;2.47;2.25;;;12.50;78.10;;;;;;5043847;28;20912;-76
2021/09/12 03:52:03;;;;;;;1.60;1.50;;;12.50;78.10;;;;;;5050219;28;20293;-75
2021/09/12 03:54:28;;;;;;;1.52;1.35;;;12.50;78.20;;;;;;5054211;28;20201;-75
2021/09/12 03:56:54;;;;;;;2.55;1.52;;;12.50;78.40;;;;;;5045233;28;20266;-75
2021/09/12 03:59:20;;;;;;;3.28;1.75;;;12.50;78.40;;;;;;5050130;28;20196;-75
2021/09/12 04:01:45;;;;;;;1.88;1.77;;;12.50;78.20;;;;;;5047894;28;20668;-76
2021/09/12 04:04:11;;;;;;;2.35;1.60;;;12.50;78.20;;;;;;5047831;28;20646;-75
2021/09/12 04:06:37;;;;;;;3.22;1.55;;;12.50;78.30;;;;;;5050658;28;20207;-75
2021/09/12 04:09:02;;;;;;;1.80;1.70;;;12.50;78.40;;;;;;5047309;28;20237;-75
2021/09/12 04:11:28;;;;;;;2.00;1.90;;;12.50;78.10;;;;;;5053075;28;20231;-74
2021/09/12 04:13:54;;;;;;;2.13;1.83;;;12.50;78.00;;;;;;5040713;28;20359;-74
2021/09/12 04:16:19;;;;;;;4.32;1.38;;;12.50;78.20;;;;;;5052169;28;20183;-75
2021/09/12 04:18:45;;;;;;;1.60;1.35;;;12.50;78.30;;;;;;5050005;28;20184;-74
2021/09/12 04:21:11;;;;;;;1.73;1.63;;;12.50;78.10;;;;;;5045736;28;20183;-74
2021/09/12 04:23:37;;;;;;;1.88;1.77;;;12.50;78.00;;;;;;5050288;28;20641;-75
2021/09/12 04:26:03;;;;;;;1.75;1.65;;;12.50;78.00;;;;;;5050257;28;20806;-76
2021/09/12 04:28:29;;;;;;;1.48;1.38;;;12.50;78.10;;;;;;5049908;28;20880;-77
2021/09/12 04:30:56;;;;;;;1.75;1.50;;;12.50;78.00;;;;;;5047366;28;20187;-76
2021/09/12 04:33:21;;;;;;;1.90;1.80;;;12.50;78.00;;;;;;5046743;28;20310;-77
2021/09/12 04:35:47;;;;;;;2.08;1.88;;;12.50;78.10;;;;;;5050281;28;20278;-75
2021/09/12 04:38:13;;;;;;;1.42;1.33;;;12.60;78.10;;;;;;5052446;28;20555;-76
2021/09/12 04:40:39;;;;;;;1.70;1.60;;;12.60;78.00;;;;;;5057188;28;20232;-76
2021/09/12 04:43:04;;;;;;;1.15;1.15;;;12.60;78.10;;;;;;5049421;28;20220;-75
2021/09/12 04:45:30;;;;;;;1.33;1.33;;;12.70;78.10;;;;;;5057355;28;20262;-75
2021/09/12 04:47:56;;;;;;;1.40;1.30;;;12.70;78.00;;;;;;5050969;28;20176;-74
2021/09/12 04:50:22;;;;;;;1.70;1.70;;;12.70;78.10;;;;;;5050048;28;20208;-75
2021/09/12 04:52:47;;;;;;;1.98;1.80;;;12.70;78.10;;;;;;5055525;28;20210;-76
2021/09/12 04:55:13;;;;;;;1.52;1.50;;;12.80;78.10;;;;;;5050235;28;20187;-76
2021/09/12 04:57:39;;;;;;;1.63;1.50;;;12.80;78.30;;;;;;5055650;28;20171;-75
2021/09/12 05:00:06;;;;;;;1.38;1.35;;;12.80;78.40;;;;;;5051933;28;20183;-76
2021/09/12 05:02:32;;;;;;;3.40;1.88;;;12.80;78.30;;;;;;5052077;28;20194;-76
2021/09/12 05:04:57;;;;;;;2.15;1.55;;;12.80;78.40;;;;;;5045246;28;20184;-77
2021/09/12 05:07:23;;;;;;;2.25;1.60;;;12.90;78.40;;;;;;5040259;28;20242;-76
2021/09/12 05:09:49;;;;;;;2.53;1.58;;;12.90;78.60;;;;;;5047060;28;20215;-76
2021/09/12 05:12:14;;;;;;;1.50;1.40;;;12.90;78.60;;;;;;5048793;28;20215;-77
2021/09/12 05:14:40;;;;;;;0.93;0.93;;;12.90;78.30;;;;;;5048709;28;20665;-76
2021/09/12 05:17:06;;;;;;;0.90;0.90;;;12.90;78.30;;;;;;5052392;28;20648;-76
2021/09/12 05:19:32;;;;;;;1.50;1.50;;;12.90;78.20;;;;;;5052542;28;20183;-76
2021/09/12 05:21:57;;;;;;;1.73;1.73;;;13.00;78.10;;;;;;5048253;28;20179;-76
2021/09/12 05:24:23;;;;;;;5.97;2.42;;;13.00;78.10;;;;;;5054112;28;20187;-75
2021/09/12 05:26:48;;;;;;;2.13;1.95;;;13.00;77.90;;;;;;5053001;28;20718;-75
2021/09/12 05:29:15;;;;;;;1.80;1.70;;;13.00;77.90;;;;;;5059281;28;20605;-75
2021/09/12 05:31:41;;;;;;;3.35;1.90;;;13.10;77.70;;;;;;5041272;28;20238;-75
2021/09/12 05:34:06;;;;;;;1.58;1.58;;;13.10;77.60;;;;;;5048115;28;20191;-76
2021/09/12 05:36:32;;;;;;;1.58;1.48;;;13.20;77.60;;;;;;5046346;28;20188;-77
2021/09/12 05:38:58;;;;;;;1.63;1.52;;;13.20;77.80;;;;;;5050897;28;20187;-76
2021/09/12 05:41:23;;;;;;;2.05;1.88;;;13.20;78.10;;;;;;5057028;28;20192;-75
2021/09/12 05:43:49;;;;;;;2.22;1.50;;;13.30;77.50;;;;;;5046720;28;20206;-75
2021/09/12 05:46:15;;;;;;;3.45;1.35;;;13.30;77.40;;;;;;5058315;28;20180;-76
2021/09/12 05:48:40;;;;;;;1.83;1.70;;;13.30;77.40;;;;;;5056172;28;20172;-76
2021/09/12 05:51:06;;;;;;;2.25;1.33;;;13.40;77.30;;;;;;5055007;28;20653;-75
2021/09/12 05:53:32;;;;;;;0.95;0.95;;;13.40;77.10;;;;;;5056992;28;20192;-77
2021/09/12 05:55:58;;;;;;;2.30;2.10;;;13.50;77.10;;;;;;5053341;28;20187;-76
2021/09/12 05:58:24;;;;;;;3.63;1.58;;;13.50;77.10;;;;;;5060835;28;20258;-75
2021/09/12 06:00:50;;;;;;;2.35;2.17;;;13.50;77.30;;;;;;5048264;28;20826;-74
2021/09/12 06:03:16;;;;;;;2.03;1.92;;;13.60;77.00;;;;;;5058324;28;20175;-76
2021/09/12 06:05:41;;;;;;;2.70;2.10;;;13.60;77.00;;;;;;5053408;28;20180;-75
2021/09/12 06:08:07;;;;;;;2.40;2.30;;;13.70;77.00;;;;;;5056905;28;20649;-76
2021/09/12 06:10:33;;;;;;;1.70;1.70;;;13.80;76.80;;;;;;5052140;28;20180;-76
2021/09/12 06:12:59;;;;;;;6.93;2.38;;;13.80;76.60;;;;;;5019336;28;20266;-75
2021/09/12 06:15:25;;;;;;;2.20;2.10;;;13.90;76.20;;;;;;5008696;28;20276;-76
2021/09/12 06:17:50;;;;;;;2.35;2.05;;;13.90;76.20;;;;;;5008308;28;20181;-75
2021/09/12 06:20:16;;;;;;;4.30;2.28;;;14.00;76.30;;;;;;5006834;28;20177;-77
2021/09/12 06:22:47;;;;;;;6.00;2.78;;;14.00;76.20;;;;;;5008620;28;20227;-79
2021/09/12 06:25:13;;;;;;;3.10;2.40;;;14.10;76.10;;;;;;5006589;28;20181;-77
2021/09/12 06:27:40;;;;;;;1.73;1.67;;;14.20;76.00;;;;;;5008530;28;20310;-76
2021/09/12 06:30:08;;;;;;;2.28;2.17;;;14.30;75.60;;;;;;5008889;28;20272;-77
2021/09/12 06:32:35;;;;;;;7.35;2.88;;;14.30;75.60;;;;;;5007996;28;20224;-77
2021/09/12 06:35:01;;;;;;;2.40;2.30;;;14.40;75.50;;;;;;5005089;28;20238;-78
2021/09/12 06:37:26;;;;;;;2.85;2.65;;;14.50;75.30;;;;;;5003795;28;20241;-75
2021/09/12 06:39:52;;;;;;;5.50;2.08;;;14.50;75.10;;;;;;5003751;28;20714;-76
2021/09/12 06:42:18;;;;;;;2.72;2.50;;;14.60;74.90;;;;;;5004571;28;20196;-76
2021/09/12 06:44:44;;;;;;;2.85;2.75;;;14.70;74.80;;;;;;5003257;28;20185;-77
2021/09/12 06:47:10;;;;;;;2.38;2.28;;;14.80;74.60;;;;;;5004563;28;20188;-77
2021/09/12 06:49:35;;;;;;;3.20;2.92;;;14.90;74.60;;;;;;5008691;28;20704;-80
2021/09/12 06:52:02;;;;;;;7.88;2.67;;;14.90;74.40;;;;;;5007030;28;20271;-77
2021/09/12 06:54:28;;;;;;;3.38;2.67;;;15.00;74.30;;;;;;5006267;28;20187;-80
2021/09/12 06:56:54;;;;;;;2.75;2.55;;;15.10;74.20;;;;;;5006668;28;20185;-81
2021/09/12 06:59:19;;;;;;;4.10;2.88;;;15.10;73.70;;;;;;5007554;28;20177;-75
2021/09/12 07:01:47;;;;;;;3.47;3.13;;;15.20;73.50;;;;;;5006870;28;20268;-77
2021/09/12 07:04:13;;;;;;;3.28;2.60;;;15.30;73.10;;;;;;5006666;28;20196;-76
2021/09/12 07:06:39;;;;;;;5.85;2.67;;;15.30;72.80;;;;;;5005230;28;20204;-73
2021/09/12 07:09:05;;;;;;;3.72;2.92;;;15.40;72.40;;;;;;5003867;28;20251;-74
2021/09/12 07:11:30;;;;;;;4.10;2.80;;;15.50;72.10;;;;;;5000188;28;20759;-76
2021/09/12 07:13:56;;;;;;;2.50;2.30;;;15.50;72.40;;;;;;5004735;28;20189;-76
2021/09/12 07:16:22;;;;;;;5.97;2.40;;;15.60;72.00;;;;;;5006659;28;20264;-76
2021/09/12 07:18:47;;;;;;;4.97;2.35;;;15.70;71.70;;;;;;5005633;28;20569;-76
2021/09/12 07:21:13;;;;;;;4.32;3.20;;;15.80;71.60;;;;;;5007023;28;20189;-75
2021/09/12 07:23:39;;;;;;;2.78;2.58;;;15.90;71.30;;;;;;5005515;28;20181;-75
2021/09/12 07:26:05;;;;;;;3.13;2.92;;;16.00;71.50;;;;;;5005716;28;20671;-75
2021/09/12 07:28:31;;;;;;;4.65;2.30;;;16.10;71.00;;;;;;5003806;28;20185;-75
2021/09/12 07:30:56;;;;;;;2.80;2.60;;;16.20;70.70;;;;;;5004452;28;21825;-75
2021/09/12 07:33:22;;;;;;;2.90;2.65;;;16.30;70.20;;;;;;5004548;28;20213;-74
2021/09/12 07:35:48;;;;;;;2.25;2.15;;;16.40;70.10;;;;;;5006203;28;20189;-74
2021/09/12 07:38:13;;;;;;;2.25;2.15;;;16.50;70.50;;;;;;5004181;28;20193;-75
2021/09/12 07:40:39;;;;;;;2.25;2.15;;;16.50;69.60;;;;;;5005721;28;20235;-74
2021/09/12 07:43:05;;;;;;;1.80;1.70;;;16.60;69.40;;;;;;5003328;28;20193;-73
2021/09/12 07:45:30;;;;;;;2.45;2.25;;;16.70;69.10;;;;;;5003686;28;20216;-73
2021/09/12 07:47:56;;;;;;;2.35;2.17;;;16.80;69.30;;;;;;5005761;28;20718;-73
2021/09/12 07:50:22;;;;;;;1.92;1.83;;;16.90;68.90;;;;;;5006179;28;20193;-74
2021/09/12 07:52:47;;;;;;;6.07;2.35;;;17.10;69.00;;;;;;5004692;28;20212;-74
2021/09/12 07:55:15;;;;;;;1.77;1.77;;;17.20;69.00;;;;;;5005913;28;20192;-73
2021/09/12 07:57:41;;;;;;;3.53;1.77;;;17.30;68.60;;;;;;5002812;28;20231;-73
2021/09/12 08:00:08;;;;;;;2.00;1.90;;;17.50;68.60;;;;;;5000385;28;20189;-75
2021/09/12 08:02:35;;;;;;;2.25;2.15;;;17.60;67.70;;;;;;5001212;28;20200;-73
2021/09/12 08:05:01;;;;;;;1.83;1.67;;;17.70;67.80;;;;;;5000963;28;20243;-75
2021/09/12 08:07:27;;;;;;;2.80;2.58;;;17.90;67.80;;;;;;5001042;28;20181;-75
2021/09/12 08:09:52;;;;;;;3.08;2.13;;;18.10;67.00;;;;;;5000076;28;20185;-74
2021/09/12 08:12:18;;;;;;;2.40;2.20;;;18.20;67.40;;;;;;5002163;28;20221;-75
2021/09/12 08:14:44;;;;;;;5.35;2.78;;;18.40;68.00;;;;;;5002596;28;20970;-73
2021/09/12 08:17:10;;;;;;;3.33;2.28;;;18.60;67.20;;;;;;5002258;28;20189;-73
2021/09/12 08:19:35;;;;;;;3.28;2.42;;;18.80;67.00;;;;;;5002528;28;20184;-72
2021/09/12 08:22:01;;;;;;;2.47;2.38;;;19.10;66.60;;;;;;4999407;28;20295;-73
2021/09/12 08:24:27;;;;;;;2.63;2.42;;;19.30;66.30;;;;;;5001806;28;20184;-72
2021/09/12 08:26:53;;;;;;;4.60;2.35;;;19.60;65.60;;;;;;5002059;28;20185;-73
2021/09/12 08:29:19;;;;;;;2.67;2.40;;;19.90;65.80;;;;;;5001309;28;21158;-72
2021/09/12 08:31:44;;;;;;;2.47;2.38;;;20.20;65.20;;;;;;5002227;28;20208;-75
2021/09/12 08:34:10;;;;;;;2.70;2.50;;;20.60;65.40;;;;;;5002127;28;20196;-72
2021/09/12 08:36:36;;;;;;;2.90;2.72;;;21.20;65.10;;;;;;5001888;28;20280;-73
2021/09/12 08:39:01;;;;;;;3.15;3.00;;;21.90;63.90;;;;;;5001085;28;20220;-73
2021/09/12 08:41:29;;;;;;;4.15;2.72;;;22.80;62.90;;;;;;5000809;28;20185;-73
2021/09/12 08:43:54;;;;;;;2.75;2.55;;;23.80;61.00;;;;;;4998115;28;20263;-74
2021/09/12 08:46:20;;;;;;;3.03;2.28;;;24.80;59.30;;;;;;4999259;28;20260;-73
2021/09/12 08:48:46;;;;;;;6.72;2.88;;;25.70;57.90;;;;;;4999717;28;20647;-73
2021/09/12 08:51:12;;;;;;;3.22;2.20;;;26.60;56.20;;;;;;5001300;28;20184;-74
2021/09/12 08:53:38;;;;;;;4.90;2.40;;;27.40;54.60;;;;;;4999202;28;20189;-74
2021/09/12 08:56:04;;;;;;;2.40;2.30;;;28.10;53.30;;;;;;5000441;28;20195;-74
2021/09/12 08:58:31;;;;;;;3.25;2.90;;;28.80;52.30;;;;;;4998684;28;20231;-74
2021/09/12 09:00:58;;;;;;;3.28;2.58;;;29.50;52.00;;;;;;4998371;28;20181;-74
2021/09/12 09:03:39;;;;;;;4.63;2.35;;;30.30;51.40;;;;;;4999000;28;20185;-75
2021/09/12 09:06:17;;;;;;;3.28;2.88;;;31.10;49.90;;;;;;5002194;28;20203;-74
2021/09/12 09:08:56;;;;;;;6.07;2.72;;;31.80;48.40;;;;;;5000713;28;21059;-75
2021/09/12 09:11:35;;;;;;;7.40;3.10;;;32.50;48.20;;;;;;4999664;28;20222;-74
2021/09/12 09:14:19;;;;;;;3.03;2.78;;;33.20;47.40;;;;;;4997085;28;20223;-74
2021/09/12 09:16:50;;;;;;;4.03;2.53;;;33.90;47.10;;;;;;4994376;28;20184;-75
2021/09/12 09:19:17;;;;;;;4.60;2.65;;;34.40;46.10;;;;;;4999710;28;20201;-75
2021/09/12 09:21:45;;;;;;;3.50;2.83;;;34.90;45.30;;;;;;5000601;28;20189;-74
2021/09/12 09:24:13;;;;;;;3.00;2.55;;;35.30;45.10;;;;;;5002755;28;21009;-76
2021/09/12 09:26:42;;;;;;;2.00;1.92;;;35.60;44.30;;;;;;5002270;28;20180;-75
2021/09/12 09:29:09;;;;;;;1.75;1.75;;;35.50;43.00;;;;;;5002122;28;20275;-75
2021/09/12 09:31:35;;;;;;;2.53;2.22;;;35.40;44.50;;;;;;4998910;28;20598;-76
2021/09/12 09:34:18;;;;;;;4.32;2.47;;;35.70;44.20;;;;;;5002096;28;20219;-75
2021/09/12 09:36:46;;;;;;;2.70;2.60;;;36.20;42.50;;;;;;5003686;28;20263;-75
2021/09/12 09:39:11;;;;;;;2.72;2.63;;;36.60;43.80;;;;;;5001836;28;20189;-74
2021/09/12 09:41:38;;;;;;;2.10;2.00;;;37.10;42.10;;;;;;5003607;28;20192;-75
2021/09/12 09:44:11;;;;;;;3.08;2.30;;;37.40;41.90;;;;;;5002838;28;20211;-75
2021/09/12 09:46:39;;;;;;;3.55;2.35;;;37.40;41.80;;;;;;5002764;28;20271;-74
2021/09/12 09:49:29;;;;;;;4.72;2.58;;;37.60;42.30;;;;;;5000684;28;20208;-74
2021/09/12 09:52:00;;;;;;;1.75;1.65;;;37.80;38.40;;;;;;5002521;28;20204;-75
2021/09/12 09:54:28;;;;;;;2.35;2.25;;;37.70;40.00;;;;;;5002874;28;20604;-74
2021/09/12 09:56:55;;;;;;;2.67;2.20;;;37.40;39.60;;;;;;5002612;28;20247;-75
2021/09/12 09:59:23;;;;;;;2.40;2.30;;;37.20;40.50;;;;;;5000627;28;20181;-74
2021/09/12 10:01:50;;;;;;;2.13;2.13;;;37.30;40.20;;;;;;5001468;28;20189;-74
2021/09/12 10:04:28;;;;;;;1.73;1.73;;;37.10;39.90;;;;;;5000507;28;20182;-74
2021/09/12 10:06:55;;;;;;;1.92;1.92;;;37.00;40.70;;;;;;4997118;28;20642;-75
2021/09/12 10:09:21;;;;;;;3.65;2.17;;;37.10;41.90;;;;;;5001076;28;20183;-75
2021/09/12 10:11:56;;;;;;;2.53;2.33;;;37.20;39.50;;;;;;4997476;28;20212;-76
2021/09/12 10:14:31;;;;;;;2.00;1.88;;;37.80;40.60;;;;;;4998560;28;20330;-77
2021/09/12 10:17:00;;;;;;;2.38;2.17;;;38.40;40.60;;;;;;5004407;28;20183;-76
2021/09/12 10:19:38;;;;;;;3.08;2.00;;;39.00;40.50;;;;;;5005438;28;20184;-76
2021/09/12 10:22:15;;;;;;;2.25;2.10;;;39.70;38.90;;;;;;5000896;28;20242;-76
2021/09/12 10:24:59;;;;;;;2.88;2.25;;;40.20;38.00;;;;;;5004520;28;20191;-76
2021/09/12 10:27:41;;;;;;;2.10;2.00;;;40.90;36.80;;;;;;5002395;28;20187;-75
2021/09/12 10:30:37;;;;;;;2.03;2.03;;;41.20;36.80;;;;;;5001839;28;20185;-74
2021/09/12 10:33:06;;;;;;;2.15;2.00;;;41.50;36.60;;;;;;5002790;28;20212;-78
2021/09/12 10:35:48;;;;;;;2.20;2.08;;;41.40;38.60;;;;;;5004589;28;20191;-76
2021/09/12 10:38:24;;;;;;;2.42;2.33;;;41.50;38.50;;;;;;5006653;28;20195;-76
2021/09/12 10:40:50;;;;;;;4.93;2.47;;;41.70;37.10;;;;;;5005281;28;20435;-75
2021/09/12 10:43:24;;;;;;;3.95;2.25;;;41.90;38.30;;;;;;5006164;28;20188;-75
2021/09/12 10:46:05;;;;;;;3.15;2.83;;;41.70;36.10;;;;;;5002249;28;20179;-77
2021/09/12 10:48:35;;;;;;;3.20;2.88;;;41.50;37.70;;;;;;5009042;28;20199;-79
2021/09/12 10:51:04;;;;;;;3.25;2.55;;;41.70;37.70;;;;;;5005183;28;20605;-77
2021/09/12 10:53:48;;;;;;;3.80;2.53;;;41.70;38.30;;;;;;5005860;28;20304;-76
2021/09/12 10:56:35;;;;;;;2.85;2.67;;;41.90;37.20;;;;;;5004370;28;20606;-77
2021/09/12 10:59:12;;;;;;;2.45;2.35;;;42.40;36.40;;;;;;5005825;28;20192;-76
2021/09/12 11:01:42;;;;;;;2.15;2.05;;;42.80;37.10;;;;;;5005295;28;20261;-77
2021/09/12 11:04:09;;;;;;;4.63;2.53;;;43.30;36.60;;;;;;5004707;28;21111;-77
2021/09/12 11:06:40;;;;;;;3.20;2.50;;;43.80;37.10;;;;;;5008549;28;20197;-77
2021/09/12 11:09:17;;;;;;;3.30;2.70;;;44.20;36.50;;;;;;5005066;28;20673;-76
2021/09/12 11:11:42;;;;;;;2.63;2.42;;;44.70;35.30;;;;;;5006972;28;20259;-77
2021/09/12 11:14:13;;;;;;;2.83;2.42;;;44.90;36.60;;;;;;5005989;28;20208;-78
2021/09/12 11:16:39;;;;;;;2.30;2.30;;;45.00;35.80;;;;;;5006291;28;20184;-78
2021/09/12 11:19:05;;;;;;;2.40;2.20;;;44.80;35.60;;;;;;5006136;28;20191;-79
2021/09/12 11:21:36;;;;;;;2.00;2.00;;;44.60;35.50;;;;;;5008084;28;20177;-79
2021/09/12 11:24:17;;;;;;;1.50;1.50;;;43.90;35.50;;;;;;5003699;28;20177;-79
2021/09/12 11:26:51;;;;;;;1.83;1.75;;;42.90;34.60;;;;;;5005161;28;20278;-75
2021/09/12 11:29:24;;;;;;;1.95;1.95;;;42.10;37.80;;;;;;5003525;28;20846;-76
2021/09/12 11:32:00;;;;;;;2.28;2.17;;;41.50;35.60;;;;;;5004164;28;20216;-76
2021/09/12 11:34:26;;;;;;;1.88;1.77;;;41.20;36.30;;;;;;5003126;28;20184;-76
2021/09/12 11:36:55;;;;;;;1.98;1.90;;;41.20;36.90;;;;;;5003001;28;20231;-76
2021/09/12 11:39:27;;;;;;;2.38;2.17;;;41.00;38.00;;;;;;5003063;28;20659;-76
2021/09/12 11:41:56;;;;;;;4.72;2.92;;;40.70;37.40;;;;;;5003578;28;20202;-76
2021/09/12 11:44:37;;;;;;;2.15;2.15;;;40.30;37.90;;;;;;5003494;28;20189;-76
2021/09/12 11:47:25;;;;;;;3.92;2.67;;;39.40;37.10;;;;;;5005124;28;20227;-76
2021/09/12 11:50:02;;;;;;;2.67;2.47;;;38.10;38.70;;;;;;5002546;28;20184;-76
2021/09/12 11:52:36;;;;;;;5.30;2.72;;;37.40;38.90;;;;;;5004856;28;20689;-76
2021/09/12 11:55:27;;;;;;;2.53;2.42;;;37.20;39.40;;;;;;5004369;28;20882;-76
2021/09/12 11:58:05;;;;;;;2.67;2.47;;;37.00;40.60;;;;;;5002826;28;20255;-76
2021/09/12 12:00:32;;;;;;;3.30;2.55;;;37.00;40.20;;;;;;5002017;28;20647;-76
2021/09/12 12:02:58;;;;;;;2.60;2.45;;;37.20;41.00;;;;;;5002107;28;20188;-76
2021/09/12 12:05:25;;;;;;;2.35;2.25;;;37.30;40.40;;;;;;5003730;28;20280;-76
2021/09/12 12:07:52;;;;;;;2.90;2.80;;;37.00;40.10;;;;;;5003915;28;20233;-76
2021/09/12 12:10:37;;;;;;;2.67;2.58;;;36.80;40.70;;;;;;5002215;28;20185;-75
2021/09/12 12:13:03;;;;;;;3.08;2.92;;;36.60;39.60;;;;;;5004452;28;20234;-75
2021/09/12 12:15:36;;;;;;;2.72;2.60;;;36.30;39.50;;;;;;5003716;28;20191;-75
2021/09/12 12:18:11;;;;;;;3.22;2.92;;;35.80;40.40;;;;;;5003149;28;20246;-75
2021/09/12 12:20:37;;;;;;;2.95;2.45;;;35.40;41.20;;;;;;5003832;28;20810;-75
2021/09/12 12:23:16;;;;;;;2.95;2.85;;;34.90;41.40;;;;;;5003969;28;20195;-77
2021/09/12 12:25:43;;;;;;;2.63;2.42;;;34.50;41.50;;;;;;5003200;28;20211;-76
2021/09/12 12:28:28;;;;;;;3.55;2.83;;;34.40;40.90;;;;;;5001827;28;20204;-77
2021/09/12 12:31:12;;;;;;;3.55;3.30;;;34.20;42.10;;;;;;5004224;28;20188;-76
2021/09/12 12:33:40;;;;;;;2.78;2.78;;;34.20;41.70;;;;;;5003595;28;20204;-77
2021/09/12 12:36:08;;;;;;;3.05;2.95;;;34.50;41.20;;;;;;5004175;28;20172;-76
2021/09/12 12:38:37;;;;;;;2.78;2.58;;;34.90;41.50;;;;;;5003658;28;20176;-77
2021/09/12 12:41:26;;;;;;;5.68;3.30;;;35.30;41.50;;;;;;5003498;28;20275;-77
2021/09/12 12:43:52;;;;;;;5.00;3.00;;;35.70;40.50;;;;;;5003425;28;20263;-76
2021/09/12 12:46:18;;;;;;;3.10;3.00;;;36.00;40.60;;;;;;5004113;28;20692;-77
2021/09/12 12:48:44;;;;;;;5.32;3.30;;;36.30;40.40;;;;;;5003324;28;20189;-76
2021/09/12 12:51:18;;;;;;;3.47;3.28;;;36.60;39.20;;;;;;5003222;28;20176;-76